sensor_id;sensor_type;location;lat;lon;timestamp;P1;durP1;ratioP1;P2;durP2;ratioP2
6089;SDS011;3073;42.660;23.316;2022-12-18T00:02:22;8.63;;;5.50;;
6089;SDS011;3073;42.660;23.316;2022-12-18T00:04:49;10.30;;;6.63;;
6089;SDS011;3073;42.660;23.316;2022-12-18T00:07:16;9.90;;;6.60;;
6089;SDS011;3073;42.660;23.316;2022-12-18T00:09:42;9.30;;;5.97;;
6089;SDS011;3073;42.660;23.316;2022-12-18T00:12:09;14.20;;;7.17;;
6089;SDS011;3073;42.660;23.316;2022-12-18T00:14:36;12.03;;;7.90;;
6089;SDS011;3073;42.660;23.316;2022-12-18T00:17:03;11.47;;;7.90;;
6089;SDS011;3073;42.660;23.316;2022-12-18T00:19:32;18.17;;;11.33;;
6089;SDS011;3073;42.660;23.316;2022-12-18T00:21:58;13.83;;;9.53;;
6089;SDS011;3073;42.660;23.316;2022-12-18T00:24:25;12.17;;;7.90;;
6089;SDS011;3073;42.660;23.316;2022-12-18T00:26:52;13.70;;;9.97;;
6089;SDS011;3073;42.660;23.316;2022-12-18T00:29:22;14.50;;;9.80;;
6089;SDS011;3073;42.660;23.316;2022-12-18T00:31:49;11.40;;;7.60;;
6089;SDS011;3073;42.660;23.316;2022-12-18T00:34:16;13.73;;;9.10;;
6089;SDS011;3073;42.660;23.316;2022-12-18T00:36:46;12.27;;;7.80;;
6089;SDS011;3073;42.660;23.316;2022-12-18T00:39:14;13.00;;;7.70;;
6089;SDS011;3073;42.660;23.316;2022-12-18T00:41:41;11.67;;;8.00;;
6089;SDS011;3073;42.660;23.316;2022-12-18T00:44:25;14.47;;;9.20;;
6089;SDS011;3073;42.660;23.316;2022-12-18T00:46:51;10.70;;;8.07;;
6089;SDS011;3073;42.660;23.316;2022-12-18T00:49:19;11.40;;;7.30;;
6089;SDS011;3073;42.660;23.316;2022-12-18T00:51:47;13.00;;;8.10;;
6089;SDS011;3073;42.660;23.316;2022-12-18T00:54:15;16.07;;;9.70;;
6089;SDS011;3073;42.660;23.316;2022-12-18T00:56:42;16.60;;;9.90;;
6089;SDS011;3073;42.660;23.316;2022-12-18T00:59:09;15.03;;;9.30;;
6089;SDS011;3073;42.660;23.316;2022-12-18T01:01:36;12.10;;;8.00;;
6089;SDS011;3073;42.660;23.316;2022-12-18T01:04:03;18.30;;;10.20;;
6089;SDS011;3073;42.660;23.316;2022-12-18T01:06:30;19.63;;;10.33;;
6089;SDS011;3073;42.660;23.316;2022-12-18T01:08:59;14.17;;;9.13;;
6089;SDS011;3073;42.660;23.316;2022-12-18T01:11:25;15.13;;;9.90;;
6089;SDS011;3073;42.660;23.316;2022-12-18T01:13:53;12.57;;;8.13;;
6089;SDS011;3073;42.660;23.316;2022-12-18T01:16:20;15.53;;;8.50;;
6089;SDS011;3073;42.660;23.316;2022-12-18T01:18:50;13.40;;;8.73;;
6089;SDS011;3073;42.660;23.316;2022-12-18T01:21:18;12.37;;;8.13;;
6089;SDS011;3073;42.660;23.316;2022-12-18T01:23:50;13.80;;;7.97;;
6089;SDS011;3073;42.660;23.316;2022-12-18T01:26:19;12.50;;;8.60;;
6089;SDS011;3073;42.660;23.316;2022-12-18T01:28:47;13.80;;;9.07;;
6089;SDS011;3073;42.660;23.316;2022-12-18T01:31:15;14.40;;;9.10;;
6089;SDS011;3073;42.660;23.316;2022-12-18T01:33:44;12.83;;;8.80;;
6089;SDS011;3073;42.660;23.316;2022-12-18T01:36:15;17.33;;;9.37;;
6089;SDS011;3073;42.660;23.316;2022-12-18T01:38:46;13.50;;;8.63;;
6089;SDS011;3073;42.660;23.316;2022-12-18T01:41:14;12.83;;;8.70;;
6089;SDS011;3073;42.660;23.316;2022-12-18T01:43:56;16.80;;;8.30;;
6089;SDS011;3073;42.660;23.316;2022-12-18T01:46:24;12.13;;;8.10;;
6089;SDS011;3073;42.660;23.316;2022-12-18T01:48:52;12.63;;;8.93;;
6089;SDS011;3073;42.660;23.316;2022-12-18T01:51:21;12.77;;;8.73;;
6089;SDS011;3073;42.660;23.316;2022-12-18T01:53:49;11.30;;;8.40;;
6089;SDS011;3073;42.660;23.316;2022-12-18T01:56:17;11.97;;;8.97;;
6089;SDS011;3073;42.660;23.316;2022-12-18T01:59:02;11.67;;;7.87;;
6089;SDS011;3073;42.660;23.316;2022-12-18T02:01:31;9.30;;;7.00;;
6089;SDS011;3073;42.660;23.316;2022-12-18T02:04:13;12.10;;;8.30;;
6089;SDS011;3073;42.660;23.316;2022-12-18T02:06:47;14.27;;;8.13;;
6089;SDS011;3073;42.660;23.316;2022-12-18T02:09:22;12.20;;;8.00;;
6089;SDS011;3073;42.660;23.316;2022-12-18T02:11:53;22.27;;;9.07;;
6089;SDS011;3073;42.660;23.316;2022-12-18T02:14:29;12.60;;;8.47;;
6089;SDS011;3073;42.660;23.316;2022-12-18T02:17:04;16.83;;;9.27;;
6089;SDS011;3073;42.660;23.316;2022-12-18T02:19:39;14.40;;;8.90;;
6089;SDS011;3073;42.660;23.316;2022-12-18T02:22:20;14.13;;;8.40;;
6089;SDS011;3073;42.660;23.316;2022-12-18T02:24:59;19.33;;;9.53;;
6089;SDS011;3073;42.660;23.316;2022-12-18T02:27:34;13.57;;;8.70;;
6089;SDS011;3073;42.660;23.316;2022-12-18T02:30:04;12.83;;;8.40;;
6089;SDS011;3073;42.660;23.316;2022-12-18T02:32:35;12.93;;;8.20;;
6089;SDS011;3073;42.660;23.316;2022-12-18T02:35:06;10.40;;;7.13;;
6089;SDS011;3073;42.660;23.316;2022-12-18T02:37:45;11.30;;;7.50;;
6089;SDS011;3073;42.660;23.316;2022-12-18T02:40:14;13.30;;;7.50;;
6089;SDS011;3073;42.660;23.316;2022-12-18T02:42:44;11.83;;;7.70;;
6089;SDS011;3073;42.660;23.316;2022-12-18T02:45:11;13.50;;;8.17;;
6089;SDS011;3073;42.660;23.316;2022-12-18T02:47:39;12.53;;;7.90;;
6089;SDS011;3073;42.660;23.316;2022-12-18T02:50:11;12.30;;;7.50;;
6089;SDS011;3073;42.660;23.316;2022-12-18T02:52:45;11.93;;;7.80;;
6089;SDS011;3073;42.660;23.316;2022-12-18T02:55:27;12.10;;;8.03;;
6089;SDS011;3073;42.660;23.316;2022-12-18T02:58:11;12.30;;;7.27;;
6089;SDS011;3073;42.660;23.316;2022-12-18T03:00:43;11.67;;;7.33;;
6089;SDS011;3073;42.660;23.316;2022-12-18T03:03:18;14.00;;;8.03;;
6089;SDS011;3073;42.660;23.316;2022-12-18T03:05:51;9.77;;;7.10;;
6089;SDS011;3073;42.660;23.316;2022-12-18T03:08:24;13.93;;;7.20;;
6089;SDS011;3073;42.660;23.316;2022-12-18T03:10:55;11.90;;;7.47;;
6089;SDS011;3073;42.660;23.316;2022-12-18T03:13:27;9.77;;;7.10;;
6089;SDS011;3073;42.660;23.316;2022-12-18T03:15:58;10.57;;;7.10;;
6089;SDS011;3073;42.660;23.316;2022-12-18T03:18:30;16.37;;;8.30;;
6089;SDS011;3073;42.660;23.316;2022-12-18T03:21:02;12.73;;;8.23;;
6089;SDS011;3073;42.660;23.316;2022-12-18T03:23:33;11.00;;;7.97;;
6089;SDS011;3073;42.660;23.316;2022-12-18T03:26:05;11.77;;;7.90;;
6089;SDS011;3073;42.660;23.316;2022-12-18T03:28:38;12.20;;;7.67;;
6089;SDS011;3073;42.660;23.316;2022-12-18T03:31:09;10.70;;;7.90;;
6089;SDS011;3073;42.660;23.316;2022-12-18T03:33:39;11.20;;;7.30;;
6089;SDS011;3073;42.660;23.316;2022-12-18T03:36:11;12.93;;;7.50;;
6089;SDS011;3073;42.660;23.316;2022-12-18T03:38:38;12.20;;;7.40;;
6089;SDS011;3073;42.660;23.316;2022-12-18T03:41:07;15.60;;;8.40;;
6089;SDS011;3073;42.660;23.316;2022-12-18T03:43:46;9.57;;;7.20;;
6089;SDS011;3073;42.660;23.316;2022-12-18T03:46:20;12.33;;;7.60;;
6089;SDS011;3073;42.660;23.316;2022-12-18T03:48:57;8.37;;;5.80;;
6089;SDS011;3073;42.660;23.316;2022-12-18T03:51:33;9.30;;;6.07;;
6089;SDS011;3073;42.660;23.316;2022-12-18T03:54:06;9.83;;;6.37;;
6089;SDS011;3073;42.660;23.316;2022-12-18T03:56:36;9.83;;;6.23;;
6089;SDS011;3073;42.660;23.316;2022-12-18T03:59:08;9.40;;;6.50;;
6089;SDS011;3073;42.660;23.316;2022-12-18T04:01:38;10.83;;;6.70;;
6089;SDS011;3073;42.660;23.316;2022-12-18T04:04:08;9.27;;;6.53;;
6089;SDS011;3073;42.660;23.316;2022-12-18T04:06:37;11.47;;;7.23;;
6089;SDS011;3073;42.660;23.316;2022-12-18T04:09:06;10.10;;;6.43;;
6089;SDS011;3073;42.660;23.316;2022-12-18T04:11:33;9.47;;;6.43;;
6089;SDS011;3073;42.660;23.316;2022-12-18T04:14:00;9.17;;;6.10;;
6089;SDS011;3073;42.660;23.316;2022-12-18T04:16:28;7.00;;;5.10;;
6089;SDS011;3073;42.660;23.316;2022-12-18T04:18:56;8.23;;;6.00;;
6089;SDS011;3073;42.660;23.316;2022-12-18T04:21:22;8.30;;;5.83;;
6089;SDS011;3073;42.660;23.316;2022-12-18T04:23:50;9.07;;;6.40;;
6089;SDS011;3073;42.660;23.316;2022-12-18T04:26:17;8.23;;;6.20;;
6089;SDS011;3073;42.660;23.316;2022-12-18T04:28:44;9.10;;;6.43;;
6089;SDS011;3073;42.660;23.316;2022-12-18T04:31:10;10.33;;;6.60;;
6089;SDS011;3073;42.660;23.316;2022-12-18T04:33:39;14.07;;;6.27;;
6089;SDS011;3073;42.660;23.316;2022-12-18T04:36:06;10.67;;;6.63;;
6089;SDS011;3073;42.660;23.316;2022-12-18T04:38:33;11.80;;;7.40;;
6089;SDS011;3073;42.660;23.316;2022-12-18T04:41:00;14.90;;;7.50;;
6089;SDS011;3073;42.660;23.316;2022-12-18T04:43:27;14.30;;;8.53;;
6089;SDS011;3073;42.660;23.316;2022-12-18T04:45:53;12.27;;;7.77;;
6089;SDS011;3073;42.660;23.316;2022-12-18T04:48:29;14.90;;;8.23;;
6089;SDS011;3073;42.660;23.316;2022-12-18T04:50:57;13.70;;;8.13;;
6089;SDS011;3073;42.660;23.316;2022-12-18T04:53:24;11.90;;;7.77;;
6089;SDS011;3073;42.660;23.316;2022-12-18T04:55:51;12.73;;;8.37;;
6089;SDS011;3073;42.660;23.316;2022-12-18T04:58:28;11.27;;;7.43;;
6089;SDS011;3073;42.660;23.316;2022-12-18T05:00:55;15.20;;;8.93;;
6089;SDS011;3073;42.660;23.316;2022-12-18T05:03:22;12.20;;;7.90;;
6089;SDS011;3073;42.660;23.316;2022-12-18T05:05:49;12.90;;;7.70;;
6089;SDS011;3073;42.660;23.316;2022-12-18T05:08:18;12.67;;;8.10;;
6089;SDS011;3073;42.660;23.316;2022-12-18T05:10:45;14.97;;;9.07;;
6089;SDS011;3073;42.660;23.316;2022-12-18T05:13:12;15.10;;;8.83;;
6089;SDS011;3073;42.660;23.316;2022-12-18T05:15:39;21.77;;;8.80;;
6089;SDS011;3073;42.660;23.316;2022-12-18T05:18:07;15.77;;;10.50;;
6089;SDS011;3073;42.660;23.316;2022-12-18T05:20:34;14.53;;;8.40;;
6089;SDS011;3073;42.660;23.316;2022-12-18T05:23:01;23.43;;;10.47;;
6089;SDS011;3073;42.660;23.316;2022-12-18T05:25:29;18.40;;;10.90;;
6089;SDS011;3073;42.660;23.316;2022-12-18T05:27:56;19.23;;;10.50;;
6089;SDS011;3073;42.660;23.316;2022-12-18T05:30:23;17.13;;;10.57;;
6089;SDS011;3073;42.660;23.316;2022-12-18T05:32:50;17.93;;;10.10;;
6089;SDS011;3073;42.660;23.316;2022-12-18T05:35:17;19.13;;;10.20;;
6089;SDS011;3073;42.660;23.316;2022-12-18T05:37:44;17.30;;;10.07;;
6089;SDS011;3073;42.660;23.316;2022-12-18T05:40:11;18.57;;;10.33;;
6089;SDS011;3073;42.660;23.316;2022-12-18T05:42:40;12.63;;;8.10;;
6089;SDS011;3073;42.660;23.316;2022-12-18T05:45:07;18.00;;;10.87;;
6089;SDS011;3073;42.660;23.316;2022-12-18T05:47:35;16.07;;;9.53;;
6089;SDS011;3073;42.660;23.316;2022-12-18T05:50:02;14.20;;;8.40;;
6089;SDS011;3073;42.660;23.316;2022-12-18T05:52:29;18.83;;;11.90;;
6089;SDS011;3073;42.660;23.316;2022-12-18T05:54:56;19.60;;;10.70;;
6089;SDS011;3073;42.660;23.316;2022-12-18T05:57:24;19.03;;;11.33;;
6089;SDS011;3073;42.660;23.316;2022-12-18T05:59:52;19.43;;;11.57;;
6089;SDS011;3073;42.660;23.316;2022-12-18T06:02:19;19.40;;;11.70;;
6089;SDS011;3073;42.660;23.316;2022-12-18T06:04:47;18.73;;;11.57;;
6089;SDS011;3073;42.660;23.316;2022-12-18T06:07:13;21.77;;;11.97;;
6089;SDS011;3073;42.660;23.316;2022-12-18T06:09:40;19.47;;;11.80;;
6089;SDS011;3073;42.660;23.316;2022-12-18T06:12:07;21.20;;;12.27;;
6089;SDS011;3073;42.660;23.316;2022-12-18T06:14:34;16.23;;;10.53;;
6089;SDS011;3073;42.660;23.316;2022-12-18T06:17:03;16.10;;;9.87;;
6089;SDS011;3073;42.660;23.316;2022-12-18T06:19:30;19.40;;;11.27;;
6089;SDS011;3073;42.660;23.316;2022-12-18T06:21:57;18.40;;;11.07;;
6089;SDS011;3073;42.660;23.316;2022-12-18T06:24:24;24.30;;;11.90;;
6089;SDS011;3073;42.660;23.316;2022-12-18T06:26:51;17.83;;;11.37;;
6089;SDS011;3073;42.660;23.316;2022-12-18T06:29:18;22.33;;;11.63;;
6089;SDS011;3073;42.660;23.316;2022-12-18T06:31:45;18.83;;;10.87;;
6089;SDS011;3073;42.660;23.316;2022-12-18T06:34:14;21.53;;;12.33;;
6089;SDS011;3073;42.660;23.316;2022-12-18T06:36:41;21.47;;;12.37;;
6089;SDS011;3073;42.660;23.316;2022-12-18T06:39:07;19.50;;;12.20;;
6089;SDS011;3073;42.660;23.316;2022-12-18T06:41:34;18.87;;;11.30;;
6089;SDS011;3073;42.660;23.316;2022-12-18T06:44:01;19.67;;;11.50;;
6089;SDS011;3073;42.660;23.316;2022-12-18T06:46:28;15.40;;;9.60;;
6089;SDS011;3073;42.660;23.316;2022-12-18T06:48:55;18.73;;;10.37;;
6089;SDS011;3073;42.660;23.316;2022-12-18T06:51:23;16.00;;;10.00;;
6089;SDS011;3073;42.660;23.316;2022-12-18T06:53:50;21.70;;;10.70;;
6089;SDS011;3073;42.660;23.316;2022-12-18T06:56:17;17.77;;;11.07;;
6089;SDS011;3073;42.660;23.316;2022-12-18T06:58:44;20.97;;;12.30;;
6089;SDS011;3073;42.660;23.316;2022-12-18T07:01:12;17.03;;;11.40;;
6089;SDS011;3073;42.660;23.316;2022-12-18T07:03:42;18.17;;;10.90;;
6089;SDS011;3073;42.660;23.316;2022-12-18T07:06:12;19.60;;;12.30;;
6089;SDS011;3073;42.660;23.316;2022-12-18T07:08:42;20.00;;;11.23;;
6089;SDS011;3073;42.660;23.316;2022-12-18T07:11:09;23.73;;;12.30;;
6089;SDS011;3073;42.660;23.316;2022-12-18T07:13:36;20.30;;;12.13;;
6089;SDS011;3073;42.660;23.316;2022-12-18T07:16:06;22.20;;;10.93;;
6089;SDS011;3073;42.660;23.316;2022-12-18T07:18:34;22.37;;;11.87;;
6089;SDS011;3073;42.660;23.316;2022-12-18T07:21:04;17.43;;;11.40;;
6089;SDS011;3073;42.660;23.316;2022-12-18T07:23:32;16.93;;;9.03;;
6089;SDS011;3073;42.660;23.316;2022-12-18T07:26:04;21.90;;;11.80;;
6089;SDS011;3073;42.660;23.316;2022-12-18T07:28:33;20.50;;;11.33;;
6089;SDS011;3073;42.660;23.316;2022-12-18T07:31:02;19.00;;;11.03;;
6089;SDS011;3073;42.660;23.316;2022-12-18T07:33:29;22.73;;;10.97;;
6089;SDS011;3073;42.660;23.316;2022-12-18T07:35:58;21.60;;;12.07;;
6089;SDS011;3073;42.660;23.316;2022-12-18T07:38:25;18.40;;;10.07;;
6089;SDS011;3073;42.660;23.316;2022-12-18T07:40:53;19.90;;;12.30;;
6089;SDS011;3073;42.660;23.316;2022-12-18T07:43:22;20.63;;;11.73;;
6089;SDS011;3073;42.660;23.316;2022-12-18T07:45:49;19.53;;;10.73;;
6089;SDS011;3073;42.660;23.316;2022-12-18T07:48:16;21.37;;;12.47;;
6089;SDS011;3073;42.660;23.316;2022-12-18T07:50:43;18.93;;;11.30;;
6089;SDS011;3073;42.660;23.316;2022-12-18T07:53:10;20.97;;;11.60;;
6089;SDS011;3073;42.660;23.316;2022-12-18T07:55:37;20.97;;;11.50;;
6089;SDS011;3073;42.660;23.316;2022-12-18T07:58:04;24.10;;;13.40;;
6089;SDS011;3073;42.660;23.316;2022-12-18T08:00:32;21.97;;;12.57;;
6089;SDS011;3073;42.660;23.316;2022-12-18T08:02:59;21.10;;;12.73;;
6089;SDS011;3073;42.660;23.316;2022-12-18T08:05:26;25.50;;;14.80;;
6089;SDS011;3073;42.660;23.316;2022-12-18T08:07:54;19.83;;;12.23;;
6089;SDS011;3073;42.660;23.316;2022-12-18T08:10:21;24.40;;;13.27;;
6089;SDS011;3073;42.660;23.316;2022-12-18T08:12:48;28.17;;;14.80;;
6089;SDS011;3073;42.660;23.316;2022-12-18T08:15:16;29.67;;;13.97;;
6089;SDS011;3073;42.660;23.316;2022-12-18T08:17:44;29.67;;;15.03;;
6089;SDS011;3073;42.660;23.316;2022-12-18T08:20:11;23.43;;;14.00;;
6089;SDS011;3073;42.660;23.316;2022-12-18T08:22:39;25.60;;;13.77;;
6089;SDS011;3073;42.660;23.316;2022-12-18T08:25:07;25.23;;;14.13;;
6089;SDS011;3073;42.660;23.316;2022-12-18T08:27:34;26.10;;;14.57;;
6089;SDS011;3073;42.660;23.316;2022-12-18T08:30:02;28.50;;;15.80;;
6089;SDS011;3073;42.660;23.316;2022-12-18T08:32:29;27.10;;;15.37;;
6089;SDS011;3073;42.660;23.316;2022-12-18T08:34:59;26.77;;;16.07;;
6089;SDS011;3073;42.660;23.316;2022-12-18T08:37:26;27.67;;;15.50;;
6089;SDS011;3073;42.660;23.316;2022-12-18T08:39:53;26.67;;;15.13;;
6089;SDS011;3073;42.660;23.316;2022-12-18T08:42:19;29.03;;;16.20;;
6089;SDS011;3073;42.660;23.316;2022-12-18T08:45:05;29.40;;;17.13;;
6089;SDS011;3073;42.660;23.316;2022-12-18T08:47:32;25.70;;;14.00;;
6089;SDS011;3073;42.660;23.316;2022-12-18T08:50:01;29.90;;;15.93;;
6089;SDS011;3073;42.660;23.316;2022-12-18T08:52:28;32.30;;;17.03;;
6089;SDS011;3073;42.660;23.316;2022-12-18T08:54:59;28.00;;;16.30;;
6089;SDS011;3073;42.660;23.316;2022-12-18T08:57:26;26.87;;;15.70;;
6089;SDS011;3073;42.660;23.316;2022-12-18T08:59:53;26.90;;;15.43;;
6089;SDS011;3073;42.660;23.316;2022-12-18T09:02:20;26.27;;;14.97;;
6089;SDS011;3073;42.660;23.316;2022-12-18T09:04:47;26.07;;;15.60;;
6089;SDS011;3073;42.660;23.316;2022-12-18T09:07:15;29.10;;;16.00;;
6089;SDS011;3073;42.660;23.316;2022-12-18T09:09:42;27.93;;;15.40;;
6089;SDS011;3073;42.660;23.316;2022-12-18T09:12:09;34.67;;;17.07;;
6089;SDS011;3073;42.660;23.316;2022-12-18T09:14:36;31.70;;;15.77;;
6089;SDS011;3073;42.660;23.316;2022-12-18T09:17:03;32.70;;;17.47;;
6089;SDS011;3073;42.660;23.316;2022-12-18T09:19:30;27.97;;;16.03;;
6089;SDS011;3073;42.660;23.316;2022-12-18T09:21:57;25.40;;;14.43;;
6089;SDS011;3073;42.660;23.316;2022-12-18T09:24:25;24.97;;;15.00;;
6089;SDS011;3073;42.660;23.316;2022-12-18T09:26:52;31.33;;;15.37;;
6089;SDS011;3073;42.660;23.316;2022-12-18T09:29:19;27.60;;;14.97;;
6089;SDS011;3073;42.660;23.316;2022-12-18T09:31:46;29.67;;;15.97;;
6089;SDS011;3073;42.660;23.316;2022-12-18T09:34:15;27.20;;;15.20;;
6089;SDS011;3073;42.660;23.316;2022-12-18T09:36:41;21.27;;;13.57;;
6089;SDS011;3073;42.660;23.316;2022-12-18T09:39:08;26.30;;;14.83;;
6089;SDS011;3073;42.660;23.316;2022-12-18T09:41:46;28.27;;;14.83;;
6089;SDS011;3073;42.660;23.316;2022-12-18T09:44:20;30.87;;;16.20;;
6089;SDS011;3073;42.660;23.316;2022-12-18T09:46:54;27.80;;;14.17;;
6089;SDS011;3073;42.660;23.316;2022-12-18T09:49:28;25.87;;;13.40;;
6089;SDS011;3073;42.660;23.316;2022-12-18T09:52:02;39.47;;;20.67;;
6089;SDS011;3073;42.660;23.316;2022-12-18T09:54:32;28.40;;;15.10;;
6089;SDS011;3073;42.660;23.316;2022-12-18T09:57:05;28.80;;;14.40;;
6089;SDS011;3073;42.660;23.316;2022-12-18T09:59:38;27.40;;;15.13;;
6089;SDS011;3073;42.660;23.316;2022-12-18T10:02:12;27.30;;;14.10;;
6089;SDS011;3073;42.660;23.316;2022-12-18T10:04:41;21.87;;;13.57;;
6089;SDS011;3073;42.660;23.316;2022-12-18T10:07:13;21.03;;;12.90;;
6089;SDS011;3073;42.660;23.316;2022-12-18T10:09:47;23.50;;;13.37;;
6089;SDS011;3073;42.660;23.316;2022-12-18T10:12:22;21.50;;;13.20;;
6089;SDS011;3073;42.660;23.316;2022-12-18T10:14:59;21.80;;;12.60;;
6089;SDS011;3073;42.660;23.316;2022-12-18T10:17:34;21.70;;;13.00;;
6089;SDS011;3073;42.660;23.316;2022-12-18T10:20:10;25.07;;;13.70;;
6089;SDS011;3073;42.660;23.316;2022-12-18T10:22:44;27.67;;;13.47;;
6089;SDS011;3073;42.660;23.316;2022-12-18T10:25:22;25.00;;;13.30;;
6089;SDS011;3073;42.660;23.316;2022-12-18T10:27:53;24.07;;;12.63;;
6089;SDS011;3073;42.660;23.316;2022-12-18T10:30:24;25.97;;;14.20;;
6089;SDS011;3073;42.660;23.316;2022-12-18T10:32:52;26.70;;;14.00;;
6089;SDS011;3073;42.660;23.316;2022-12-18T10:35:20;27.63;;;14.63;;
6089;SDS011;3073;42.660;23.316;2022-12-18T10:40:50;27.57;;;14.40;;
6089;SDS011;3073;42.660;23.316;2022-12-18T10:43:21;25.60;;;12.70;;
6089;SDS011;3073;42.660;23.316;2022-12-18T10:48:49;24.00;;;13.87;;
6089;SDS011;3073;42.660;23.316;2022-12-18T10:51:20;27.17;;;13.40;;
6089;SDS011;3073;42.660;23.316;2022-12-18T10:53:54;22.40;;;12.90;;
6089;SDS011;3073;42.660;23.316;2022-12-18T10:56:23;24.13;;;12.57;;
6089;SDS011;3073;42.660;23.316;2022-12-18T10:58:57;23.70;;;12.90;;
6089;SDS011;3073;42.660;23.316;2022-12-18T11:01:26;23.30;;;12.53;;
6089;SDS011;3073;42.660;23.316;2022-12-18T11:04:00;23.47;;;12.97;;
6089;SDS011;3073;42.660;23.316;2022-12-18T11:06:29;22.10;;;10.93;;
6089;SDS011;3073;42.660;23.316;2022-12-18T11:08:59;19.87;;;11.07;;
6089;SDS011;3073;42.660;23.316;2022-12-18T11:11:27;21.13;;;11.73;;
6089;SDS011;3073;42.660;23.316;2022-12-18T11:14:01;22.20;;;11.63;;
6089;SDS011;3073;42.660;23.316;2022-12-18T11:16:30;22.77;;;12.53;;
6089;SDS011;3073;42.660;23.316;2022-12-18T11:19:09;26.23;;;12.57;;
6089;SDS011;3073;42.660;23.316;2022-12-18T11:21:49;25.80;;;11.30;;
6089;SDS011;3073;42.660;23.316;2022-12-18T11:24:19;21.73;;;11.20;;
6089;SDS011;3073;42.660;23.316;2022-12-18T11:26:49;20.93;;;11.33;;
6089;SDS011;3073;42.660;23.316;2022-12-18T11:29:20;19.53;;;10.53;;
6089;SDS011;3073;42.660;23.316;2022-12-18T11:31:50;21.73;;;11.47;;
6089;SDS011;3073;42.660;23.316;2022-12-18T11:34:19;24.70;;;12.97;;
6089;SDS011;3073;42.660;23.316;2022-12-18T11:36:55;18.10;;;10.00;;
6089;SDS011;3073;42.660;23.316;2022-12-18T11:39:27;21.80;;;12.13;;
6089;SDS011;3073;42.660;23.316;2022-12-18T11:42:01;20.07;;;11.00;;
6089;SDS011;3073;42.660;23.316;2022-12-18T11:44:40;20.60;;;11.03;;
6089;SDS011;3073;42.660;23.316;2022-12-18T11:47:25;20.30;;;10.70;;
6089;SDS011;3073;42.660;23.316;2022-12-18T11:49:55;19.93;;;10.47;;
6089;SDS011;3073;42.660;23.316;2022-12-18T11:52:28;20.90;;;10.33;;
6089;SDS011;3073;42.660;23.316;2022-12-18T11:55:01;21.17;;;10.67;;
6089;SDS011;3073;42.660;23.316;2022-12-18T11:57:38;21.57;;;12.30;;
6089;SDS011;3073;42.660;23.316;2022-12-18T12:00:18;25.70;;;13.20;;
6089;SDS011;3073;42.660;23.316;2022-12-18T12:02:52;22.67;;;12.17;;
6089;SDS011;3073;42.660;23.316;2022-12-18T12:05:41;27.30;;;12.70;;
6089;SDS011;3073;42.660;23.316;2022-12-18T12:08:15;21.50;;;12.00;;
6089;SDS011;3073;42.660;23.316;2022-12-18T12:10:51;21.83;;;12.03;;
6089;SDS011;3073;42.660;23.316;2022-12-18T12:13:30;27.73;;;13.47;;
6089;SDS011;3073;42.660;23.316;2022-12-18T12:16:12;27.83;;;14.97;;
6089;SDS011;3073;42.660;23.316;2022-12-18T12:18:48;27.07;;;13.87;;
6089;SDS011;3073;42.660;23.316;2022-12-18T12:21:27;23.77;;;13.00;;
6089;SDS011;3073;42.660;23.316;2022-12-18T12:24:02;24.93;;;12.03;;
6089;SDS011;3073;42.660;23.316;2022-12-18T12:26:38;21.07;;;11.90;;
6089;SDS011;3073;42.660;23.316;2022-12-18T12:29:18;24.00;;;13.20;;
6089;SDS011;3073;42.660;23.316;2022-12-18T12:32:03;24.13;;;13.30;;
6089;SDS011;3073;42.660;23.316;2022-12-18T12:34:38;17.67;;;10.60;;
6089;SDS011;3073;42.660;23.316;2022-12-18T12:37:18;21.07;;;11.00;;
6089;SDS011;3073;42.660;23.316;2022-12-18T12:39:55;19.27;;;10.67;;
6089;SDS011;3073;42.660;23.316;2022-12-18T12:42:24;20.10;;;11.10;;
6089;SDS011;3073;42.660;23.316;2022-12-18T12:45:15;22.20;;;12.03;;
6089;SDS011;3073;42.660;23.316;2022-12-18T12:47:45;23.00;;;13.10;;
6089;SDS011;3073;42.660;23.316;2022-12-18T12:50:16;25.10;;;12.70;;
6089;SDS011;3073;42.660;23.316;2022-12-18T12:52:45;27.20;;;12.60;;
6089;SDS011;3073;42.660;23.316;2022-12-18T12:55:14;23.10;;;12.17;;
6089;SDS011;3073;42.660;23.316;2022-12-18T12:57:45;25.20;;;13.60;;
6089;SDS011;3073;42.660;23.316;2022-12-18T13:00:18;24.03;;;13.30;;
6089;SDS011;3073;42.660;23.316;2022-12-18T13:02:49;23.63;;;13.00;;
6089;SDS011;3073;42.660;23.316;2022-12-18T13:05:23;31.50;;;14.17;;
6089;SDS011;3073;42.660;23.316;2022-12-18T13:07:57;27.27;;;14.00;;
6089;SDS011;3073;42.660;23.316;2022-12-18T13:10:33;21.00;;;12.80;;
6089;SDS011;3073;42.660;23.316;2022-12-18T13:13:06;25.40;;;13.80;;
6089;SDS011;3073;42.660;23.316;2022-12-18T13:15:36;33.10;;;13.63;;
6089;SDS011;3073;42.660;23.316;2022-12-18T13:18:10;26.33;;;14.70;;
6089;SDS011;3073;42.660;23.316;2022-12-18T13:20:45;24.27;;;12.80;;
6089;SDS011;3073;42.660;23.316;2022-12-18T13:23:26;23.57;;;12.97;;
6089;SDS011;3073;42.660;23.316;2022-12-18T13:25:55;23.07;;;12.70;;
6089;SDS011;3073;42.660;23.316;2022-12-18T13:28:26;23.10;;;13.80;;
6089;SDS011;3073;42.660;23.316;2022-12-18T13:34:35;24.97;;;13.00;;
6089;SDS011;3073;42.660;23.316;2022-12-18T13:40:07;23.43;;;13.27;;
6089;SDS011;3073;42.660;23.316;2022-12-18T13:43:28;22.87;;;12.90;;
6089;SDS011;3073;42.660;23.316;2022-12-18T13:46:00;26.57;;;14.57;;
6089;SDS011;3073;42.660;23.316;2022-12-18T13:48:31;27.53;;;13.30;;
6089;SDS011;3073;42.660;23.316;2022-12-18T13:51:02;22.33;;;13.20;;
6089;SDS011;3073;42.660;23.316;2022-12-18T13:53:33;21.33;;;13.70;;
6089;SDS011;3073;42.660;23.316;2022-12-18T13:56:04;30.73;;;14.80;;
6089;SDS011;3073;42.660;23.316;2022-12-18T13:58:32;27.30;;;14.57;;
6089;SDS011;3073;42.660;23.316;2022-12-18T14:00:59;28.90;;;12.23;;
6089;SDS011;3073;42.660;23.316;2022-12-18T14:03:29;25.87;;;14.43;;
6089;SDS011;3073;42.660;23.316;2022-12-18T14:06:00;23.50;;;12.93;;
6089;SDS011;3073;42.660;23.316;2022-12-18T14:08:33;26.07;;;13.90;;
6089;SDS011;3073;42.660;23.316;2022-12-18T14:11:04;20.47;;;12.60;;
6089;SDS011;3073;42.660;23.316;2022-12-18T14:13:32;22.40;;;12.30;;
6089;SDS011;3073;42.660;23.316;2022-12-18T14:16:03;20.67;;;11.77;;
6089;SDS011;3073;42.660;23.316;2022-12-18T14:18:34;22.30;;;12.03;;
6089;SDS011;3073;42.660;23.316;2022-12-18T14:21:15;21.93;;;12.23;;
6089;SDS011;3073;42.660;23.316;2022-12-18T14:23:44;22.30;;;11.17;;
6089;SDS011;3073;42.660;23.316;2022-12-18T14:26:22;23.13;;;11.63;;
6089;SDS011;3073;42.660;23.316;2022-12-18T14:28:53;20.97;;;10.70;;
6089;SDS011;3073;42.660;23.316;2022-12-18T14:31:21;20.03;;;11.13;;
6089;SDS011;3073;42.660;23.316;2022-12-18T14:33:49;19.53;;;11.20;;
6089;SDS011;3073;42.660;23.316;2022-12-18T14:36:19;20.67;;;10.80;;
6089;SDS011;3073;42.660;23.316;2022-12-18T14:38:48;18.53;;;11.17;;
6089;SDS011;3073;42.660;23.316;2022-12-18T14:41:17;17.43;;;10.73;;
6089;SDS011;3073;42.660;23.316;2022-12-18T14:43:45;22.10;;;12.40;;
6089;SDS011;3073;42.660;23.316;2022-12-18T14:46:27;20.60;;;10.50;;
6089;SDS011;3073;42.660;23.316;2022-12-18T14:48:57;20.53;;;11.97;;
6089;SDS011;3073;42.660;23.316;2022-12-18T14:51:27;20.37;;;10.10;;
6089;SDS011;3073;42.660;23.316;2022-12-18T14:53:55;22.20;;;11.63;;
6089;SDS011;3073;42.660;23.316;2022-12-18T14:56:26;21.43;;;10.87;;
6089;SDS011;3073;42.660;23.316;2022-12-18T14:58:55;20.70;;;11.07;;
6089;SDS011;3073;42.660;23.316;2022-12-18T15:01:25;16.97;;;9.73;;
6089;SDS011;3073;42.660;23.316;2022-12-18T15:03:54;19.23;;;10.40;;
6089;SDS011;3073;42.660;23.316;2022-12-18T15:06:31;22.80;;;10.60;;
6089;SDS011;3073;42.660;23.316;2022-12-18T15:09:01;24.80;;;11.60;;
6089;SDS011;3073;42.660;23.316;2022-12-18T15:11:35;19.90;;;10.47;;
6089;SDS011;3073;42.660;23.316;2022-12-18T15:14:28;18.43;;;10.23;;